createdAt,value
2022-07-26T00:01:49.490Z,17.35
2022-07-26T00:04:17.127Z,17.35
2022-07-26T00:06:44.839Z,17.36
2022-07-26T00:09:12.456Z,17.35
2022-07-26T00:11:41.440Z,17.33
2022-07-26T00:14:10.212Z,17.33
2022-07-26T00:16:39.132Z,17.37
2022-07-26T00:19:08.133Z,17.36
2022-07-26T00:21:37.118Z,17.33
2022-07-26T00:24:09.410Z,17.35
2022-07-26T00:26:37.618Z,17.36
2022-07-26T00:29:07.023Z,17.34
2022-07-26T00:31:35.013Z,17.37
2022-07-26T00:34:02.639Z,17.40
2022-07-26T00:36:30.293Z,17.41
2022-07-26T00:38:57.889Z,17.37
2022-07-26T00:41:25.478Z,17.38
2022-07-26T00:43:57.294Z,17.37
2022-07-26T00:46:26.458Z,17.39
2022-07-26T00:48:54.241Z,17.46
2022-07-26T00:51:21.957Z,17.38
2022-07-26T00:53:50.733Z,17.38
2022-07-26T00:56:18.864Z,17.35
2022-07-26T00:58:46.456Z,17.41
2022-07-26T01:01:14.272Z,17.34
2022-07-26T01:03:43.260Z,17.36
2022-07-26T01:06:10.859Z,17.31
2022-07-26T01:08:38.645Z,17.23
2022-07-26T01:11:06.512Z,17.23
2022-07-26T01:13:35.510Z,17.19
2022-07-26T01:16:03.580Z,17.10
2022-07-26T01:18:31.318Z,17.08
2022-07-26T01:21:01.828Z,17.02
2022-07-26T01:23:43.626Z,16.98
2022-07-26T01:26:11.638Z,16.97
2022-07-26T01:28:41.189Z,16.92
2022-07-26T01:31:09.654Z,16.89
2022-07-26T01:33:38.052Z,16.85
2022-07-26T01:36:06.311Z,16.81
2022-07-26T01:38:34.041Z,16.80
2022-07-26T01:41:03.013Z,16.78
2022-07-26T01:43:30.681Z,16.69
2022-07-26T01:45:58.786Z,16.61
2022-07-26T01:48:26.626Z,16.54
2022-07-26T01:50:54.273Z,16.44
2022-07-26T01:53:21.848Z,16.38
2022-07-26T01:55:49.463Z,16.33
2022-07-26T01:58:18.622Z,16.34
2022-07-26T02:00:46.281Z,16.35
2022-07-26T02:03:13.931Z,16.31
2022-07-26T02:05:41.677Z,16.29
2022-07-26T02:08:10.227Z,16.21
2022-07-26T02:10:56.256Z,16.19
2022-07-26T02:13:25.873Z,16.21
2022-07-26T02:15:53.523Z,16.19
2022-07-26T02:18:21.145Z,16.12
2022-07-26T02:20:48.733Z,16.08
2022-07-26T02:23:16.310Z,16.07
2022-07-26T02:25:43.926Z,16.05
2022-07-26T02:28:11.593Z,16.02
2022-07-26T02:30:40.806Z,16.02
2022-07-26T02:33:08.451Z,16.05
2022-07-26T02:35:36.388Z,16.02
2022-07-26T02:38:04.629Z,15.99
2022-07-26T02:40:32.309Z,15.91
2022-07-26T02:42:59.995Z,15.84
2022-07-26T02:45:27.728Z,15.81
2022-07-26T02:47:57.109Z,15.80
2022-07-26T02:50:26.080Z,15.79
2022-07-26T02:52:54.228Z,15.74
2022-07-26T02:55:24.770Z,15.75
2022-07-26T02:57:53.048Z,15.79
2022-07-26T03:00:21.999Z,15.75
2022-07-26T03:02:51.277Z,15.73
2022-07-26T03:05:21.528Z,15.68
2022-07-26T03:07:49.500Z,15.64
2022-07-26T03:10:17.955Z,15.61
2022-07-26T03:12:45.928Z,15.60
2022-07-26T03:15:13.645Z,15.59
2022-07-26T03:17:41.216Z,15.60
2022-07-26T03:20:10.386Z,15.61
2022-07-26T03:22:39.500Z,15.63
2022-07-26T03:25:07.534Z,15.71
2022-07-26T03:27:35.379Z,15.83
2022-07-26T03:30:02.946Z,15.87
2022-07-26T03:32:30.536Z,15.79
2022-07-26T03:34:58.122Z,15.71
2022-07-26T03:37:25.827Z,15.65
2022-07-26T03:40:15.611Z,15.62
2022-07-26T03:42:43.185Z,15.55
2022-07-26T03:45:11.744Z,15.48
2022-07-26T03:47:39.356Z,15.45
2022-07-26T03:50:08.551Z,15.43
2022-07-26T03:52:36.366Z,15.49
2022-07-26T03:55:24.472Z,15.59
2022-07-26T03:57:52.734Z,15.66
2022-07-26T04:00:20.345Z,15.67
2022-07-26T04:02:47.977Z,15.72
2022-07-26T04:05:15.625Z,15.77
2022-07-26T04:07:43.687Z,15.78
2022-07-26T04:10:20.710Z,15.77
2022-07-26T04:12:48.331Z,15.74
2022-07-26T04:15:19.012Z,15.80
2022-07-26T04:17:48.175Z,15.78
2022-07-26T04:20:16.478Z,15.76
2022-07-26T04:22:44.877Z,15.76
2022-07-26T04:25:12.689Z,15.76
2022-07-26T04:27:40.346Z,15.80
2022-07-26T04:30:14.425Z,15.98
2022-07-26T04:32:45.902Z,16.10
2022-07-26T04:35:14.620Z,16.25
2022-07-26T04:37:43.067Z,16.46
2022-07-26T04:40:13.080Z,16.77
2022-07-26T04:42:40.993Z,16.93
2022-07-26T04:45:10.828Z,17.29
2022-07-26T04:47:38.439Z,17.63
2022-07-26T04:50:09.265Z,17.30
2022-07-26T04:52:36.939Z,16.83
2022-07-26T04:55:05.076Z,16.21
2022-07-26T04:57:32.728Z,16.06
2022-07-26T05:00:20.339Z,15.95
2022-07-26T05:02:48.413Z,15.93
2022-07-26T05:05:17.415Z,15.89
2022-07-26T05:07:46.381Z,15.87
2022-07-26T05:10:14.709Z,15.85
2022-07-26T05:12:42.308Z,15.90
2022-07-26T05:15:13.932Z,15.89
2022-07-26T05:17:42.779Z,15.94
2022-07-26T05:20:13.023Z,15.93
2022-07-26T05:22:42.078Z,15.97
2022-07-26T05:25:10.299Z,16.04
2022-07-26T05:27:38.986Z,16.04
2022-07-26T05:30:07.478Z,16.08
2022-07-26T05:32:35.142Z,16.06
2022-07-26T05:35:02.783Z,16.04
2022-07-26T05:37:30.392Z,16.16
2022-07-26T05:39:59.340Z,16.30
2022-07-26T05:42:26.950Z,16.42
2022-07-26T05:44:55.948Z,16.47
2022-07-26T05:47:23.659Z,16.45
2022-07-26T05:49:51.233Z,16.52
2022-07-26T05:52:18.839Z,16.36
2022-07-26T05:54:46.416Z,16.47
2022-07-26T05:57:15.409Z,16.53
2022-07-26T05:59:43.021Z,16.67
2022-07-26T06:02:10.638Z,16.55
2022-07-26T06:04:38.260Z,16.65
2022-07-26T06:07:05.944Z,16.72
2022-07-26T06:09:33.643Z,16.60
2022-07-26T06:12:01.240Z,16.87
2022-07-26T06:14:30.172Z,17.14
2022-07-26T06:16:58.052Z,17.57
2022-07-26T06:19:25.683Z,17.66
2022-07-26T06:21:53.226Z,18.06
2022-07-26T06:24:20.816Z,18.19
2022-07-26T06:26:54.742Z,18.48
2022-07-26T06:29:32.319Z,18.44
2022-07-26T06:32:01.972Z,18.39
2022-07-26T06:34:29.648Z,18.28
2022-07-26T06:36:57.321Z,18.71
2022-07-26T06:39:24.997Z,19.70
2022-07-26T06:41:52.604Z,20.45
2022-07-26T06:44:20.193Z,20.58
2022-07-26T06:46:48.160Z,18.78
2022-07-26T06:49:20.772Z,18.91
2022-07-26T06:51:49.950Z,18.89
2022-07-26T06:54:17.524Z,18.78
2022-07-26T06:56:45.128Z,19.53
2022-07-26T06:59:12.729Z,19.05
2022-07-26T07:01:51.442Z,18.75
2022-07-26T07:04:29.208Z,18.72
2022-07-26T07:06:57.388Z,18.61
2022-07-26T07:09:25.569Z,18.24
2022-07-26T07:11:57.366Z,16.79
2022-07-26T07:14:28.355Z,15.87
2022-07-26T07:16:56.521Z,15.59
2022-07-26T07:19:24.228Z,15.61
2022-07-26T07:21:53.516Z,15.66
2022-07-26T07:24:21.433Z,15.80
2022-07-26T07:26:50.076Z,15.98
2022-07-26T07:29:20.243Z,16.11
2022-07-26T07:31:49.711Z,16.06
2022-07-26T07:34:19.604Z,16.44
2022-07-26T07:36:47.591Z,17.01
2022-07-26T07:39:17.306Z,17.71
2022-07-26T07:41:45.409Z,17.76
2022-07-26T07:44:12.951Z,17.73
2022-07-26T07:46:40.905Z,17.37
2022-07-26T07:49:10.802Z,17.07
2022-07-26T07:51:38.785Z,17.30
2022-07-26T07:54:06.511Z,17.69
2022-07-26T07:56:35.462Z,17.81
2022-07-26T07:59:03.041Z,18.00
2022-07-26T08:01:40.427Z,18.26
2022-07-26T08:04:08.861Z,17.77
2022-07-26T08:06:36.720Z,18.19
2022-07-26T08:09:06.429Z,18.05
2022-07-26T08:11:35.606Z,18.33
2022-07-26T08:14:04.202Z,18.52
2022-07-26T08:16:32.067Z,18.54
2022-07-26T08:18:59.727Z,18.47
2022-07-26T08:21:28.913Z,18.24
2022-07-26T08:23:57.285Z,18.27
2022-07-26T08:26:25.212Z,17.53
2022-07-26T08:28:59.935Z,17.51
2022-07-26T08:31:28.308Z,17.52
2022-07-26T08:33:56.268Z,17.95
2022-07-26T08:36:24.372Z,18.30
2022-07-26T08:38:52.541Z,18.55
2022-07-26T08:41:20.229Z,18.60
2022-07-26T08:43:51.907Z,18.63
2022-07-26T08:46:25.743Z,18.65
2022-07-26T08:48:54.020Z,19.12
2022-07-26T08:51:23.882Z,18.82
2022-07-26T08:53:51.845Z,18.62
2022-07-26T08:56:19.461Z,18.61
2022-07-26T08:58:47.063Z,19.12
2022-07-26T09:01:15.049Z,19.83
2022-07-26T09:03:45.726Z,19.90
2022-07-26T09:06:18.230Z,19.69
2022-07-26T09:08:46.652Z,19.85
2022-07-26T09:11:32.052Z,19.79
2022-07-26T09:14:01.456Z,19.41
2022-07-26T09:16:29.972Z,19.13
2022-07-26T09:19:15.859Z,18.42
2022-07-26T09:21:43.545Z,17.80
2022-07-26T09:24:11.444Z,17.20
2022-07-26T09:26:39.372Z,17.00
2022-07-26T09:29:09.170Z,16.65
2022-07-26T09:31:37.580Z,16.47
2022-07-26T09:34:07.651Z,16.46
2022-07-26T09:36:51.440Z,16.86
2022-07-26T09:39:22.767Z,17.62
2022-07-26T09:42:26.738Z,18.44
2022-07-26T09:44:56.432Z,19.18
2022-07-26T09:47:24.909Z,19.16
2022-07-26T09:50:11.691Z,19.40
2022-07-26T09:52:39.617Z,19.51
2022-07-26T09:55:09.302Z,19.16
2022-07-26T09:57:36.954Z,19.64
2022-07-26T10:00:05.916Z,19.57
2022-07-26T10:02:35.675Z,20.04
2022-07-26T10:05:05.076Z,19.63
2022-07-26T10:07:32.984Z,19.91
2022-07-26T10:10:03.477Z,20.00
2022-07-26T10:12:33.112Z,20.32
2022-07-26T10:15:00.754Z,20.23
2022-07-26T10:17:46.271Z,19.89
2022-07-26T10:20:44.195Z,19.66
2022-07-26T10:23:37.077Z,19.49
2022-07-26T10:26:05.589Z,19.19
2022-07-26T10:28:34.368Z,18.85
2022-07-26T10:31:24.610Z,18.45
2022-07-26T10:33:53.724Z,18.09
2022-07-26T10:36:34.606Z,18.04
2022-07-26T10:39:07.682Z,17.40
2022-07-26T10:41:37.824Z,17.66
2022-07-26T10:44:24.072Z,17.44
2022-07-26T10:47:20.144Z,17.54
2022-07-26T10:49:56.315Z,17.82
2022-07-26T10:52:27.364Z,18.65
2022-07-26T10:55:17.129Z,19.06
2022-07-26T10:57:47.292Z,19.47
2022-07-26T11:00:23.854Z,19.78
2022-07-26T11:02:55.982Z,20.08
2022-07-26T11:05:28.602Z,20.54
2022-07-26T11:08:01.424Z,20.07
2022-07-26T11:10:31.239Z,20.75
2022-07-26T11:13:03.776Z,20.90
2022-07-26T11:15:31.618Z,21.44
2022-07-26T11:18:24.116Z,21.84
2022-07-26T11:20:55.980Z,21.23
2022-07-26T11:23:26.687Z,20.94
2022-07-26T11:26:16.727Z,20.06
2022-07-26T11:28:55.753Z,19.51
2022-07-26T11:31:49.446Z,19.41
2022-07-26T11:34:22.027Z,18.55
2022-07-26T11:36:51.271Z,18.81
2022-07-26T11:39:23.920Z,18.98
2022-07-26T11:41:53.232Z,19.55
2022-07-26T11:44:21.908Z,19.82
2022-07-26T11:46:50.148Z,20.10
2022-07-26T11:49:19.375Z,21.09
2022-07-26T11:51:54.220Z,21.55
2022-07-26T11:54:25.021Z,21.86
2022-07-26T11:56:54.786Z,21.34
2022-07-26T11:59:23.238Z,21.20
2022-07-26T12:01:51.177Z,20.93
2022-07-26T12:04:20.989Z,20.08
2022-07-26T12:06:49.045Z,20.71
2022-07-26T12:09:31.472Z,21.22
2022-07-26T12:11:59.272Z,20.63
2022-07-26T12:14:27.489Z,21.00
2022-07-26T12:16:55.597Z,20.56
2022-07-26T12:19:26.235Z,20.36
2022-07-26T12:21:56.156Z,20.15
2022-07-26T12:24:42.665Z,20.20
2022-07-26T12:27:12.902Z,20.52
2022-07-26T12:29:41.827Z,20.20
2022-07-26T12:32:13.029Z,19.40
2022-07-26T12:34:41.996Z,18.91
2022-07-26T12:37:17.772Z,18.54
2022-07-26T12:40:09.194Z,19.11
2022-07-26T12:42:38.729Z,19.08
2022-07-26T12:45:08.673Z,19.18
2022-07-26T12:47:37.217Z,19.52
2022-07-26T12:50:05.122Z,19.46
2022-07-26T12:52:33.978Z,19.24
2022-07-26T12:55:02.502Z,19.35
2022-07-26T12:57:31.726Z,19.57
2022-07-26T12:59:59.460Z,19.59
2022-07-26T13:02:27.061Z,20.21
2022-07-26T13:05:00.011Z,20.41
2022-07-26T13:07:28.244Z,20.01
2022-07-26T13:10:22.562Z,20.47
2022-07-26T13:12:44.848Z,20.39
2022-07-26T13:15:12.515Z,19.31
2022-07-26T13:17:40.484Z,18.82
2022-07-26T13:20:09.182Z,18.48
2022-07-26T13:22:37.658Z,18.50
2022-07-26T13:25:08.281Z,18.91
2022-07-26T13:27:39.085Z,18.98
2022-07-26T13:30:12.162Z,18.77
2022-07-26T13:32:39.816Z,18.80
2022-07-26T13:35:08.436Z,19.02
2022-07-26T13:37:38.102Z,19.70
2022-07-26T13:40:07.059Z,20.07
2022-07-26T13:42:34.678Z,20.60
2022-07-26T13:45:02.340Z,21.02
2022-07-26T13:47:31.252Z,21.39
2022-07-26T13:49:58.843Z,21.28
2022-07-26T13:52:26.442Z,21.45
2022-07-26T13:54:54.289Z,20.82
2022-07-26T13:57:21.879Z,20.14
2022-07-26T13:59:49.470Z,20.21
2022-07-26T14:02:17.231Z,20.06
2022-07-26T14:04:46.289Z,20.24
2022-07-26T14:07:14.258Z,19.65
2022-07-26T14:09:41.860Z,19.84
2022-07-26T14:12:10.516Z,20.01
2022-07-26T14:14:38.117Z,20.24
2022-07-26T14:17:05.798Z,20.65
2022-07-26T14:19:33.451Z,20.50
2022-07-26T14:22:02.449Z,21.00
2022-07-26T14:24:30.180Z,21.64
2022-07-26T14:26:59.609Z,21.82
2022-07-26T14:29:27.953Z,22.12
2022-07-26T14:31:55.661Z,21.65
2022-07-26T14:34:23.317Z,21.20
2022-07-26T14:36:50.919Z,21.06
2022-07-26T14:39:19.839Z,20.97
2022-07-26T14:41:48.049Z,20.23
2022-07-26T14:44:15.613Z,20.80
2022-07-26T14:46:43.731Z,21.59
2022-07-26T14:49:11.354Z,21.80
2022-07-26T14:51:39.147Z,21.62
2022-07-26T14:54:07.019Z,20.66
2022-07-26T14:56:38.694Z,20.97
2022-07-26T14:59:06.436Z,21.81
2022-07-26T15:01:34.112Z,21.54
2022-07-26T15:04:01.794Z,21.07
2022-07-26T15:06:29.371Z,21.61
2022-07-26T15:08:56.908Z,21.55
2022-07-26T15:11:24.500Z,21.12
2022-07-26T15:13:54.500Z,20.74
2022-07-26T15:16:22.185Z,20.51
2022-07-26T15:18:49.800Z,20.26
2022-07-26T15:21:17.467Z,20.43
2022-07-26T15:23:45.214Z,20.25
2022-07-26T15:26:12.790Z,20.08
2022-07-26T15:28:40.369Z,20.26
2022-07-26T15:31:10.496Z,20.44
2022-07-26T15:33:38.098Z,20.38
2022-07-26T15:36:06.665Z,20.09
2022-07-26T15:38:34.440Z,20.40
2022-07-26T15:41:02.035Z,20.79
2022-07-26T15:43:44.067Z,21.17
2022-07-26T15:46:18.122Z,20.44
2022-07-26T15:48:47.177Z,20.44
2022-07-26T15:51:15.621Z,20.04
2022-07-26T15:53:46.424Z,20.18
2022-07-26T15:56:14.427Z,20.61
2022-07-26T15:58:42.023Z,20.40
2022-07-26T16:01:09.846Z,20.00
2022-07-26T16:03:38.864Z,20.36
2022-07-26T16:06:06.525Z,20.29
2022-07-26T16:08:43.082Z,20.32
2022-07-26T16:11:21.942Z,20.13
2022-07-26T16:13:49.540Z,19.98
2022-07-26T16:16:17.263Z,19.74
2022-07-26T16:18:46.344Z,19.41
2022-07-26T16:21:14.003Z,19.03
2022-07-26T16:23:41.645Z,19.10
2022-07-26T16:26:09.267Z,18.95
2022-07-26T16:28:37.013Z,18.96
2022-07-26T16:31:04.679Z,19.21
2022-07-26T16:33:32.606Z,18.93
2022-07-26T16:36:06.146Z,18.95
2022-07-26T16:38:34.157Z,19.06
2022-07-26T16:41:01.863Z,19.19
2022-07-26T16:43:29.525Z,19.32
2022-07-26T16:45:57.108Z,19.65
2022-07-26T16:48:24.729Z,19.79
2022-07-26T16:50:52.376Z,19.28
2022-07-26T16:53:21.388Z,18.91
2022-07-26T16:55:51.337Z,18.89
2022-07-26T16:58:19.013Z,19.06
2022-07-26T17:00:47.149Z,18.74
2022-07-26T17:03:15.885Z,18.63
2022-07-26T17:05:44.988Z,18.43
2022-07-26T17:08:12.813Z,18.26
2022-07-26T17:10:41.776Z,18.19
2022-07-26T17:13:09.446Z,18.17
2022-07-26T17:15:37.413Z,18.14
2022-07-26T17:18:05.536Z,18.03
2022-07-26T17:20:33.453Z,18.17
2022-07-26T17:23:01.058Z,18.17
2022-07-26T17:25:28.680Z,18.09
2022-07-26T17:27:57.669Z,18.36
2022-07-26T17:30:25.600Z,18.59
2022-07-26T17:32:53.336Z,18.71
2022-07-26T17:35:20.965Z,18.47
2022-07-26T17:37:48.653Z,18.57
2022-07-26T17:40:16.920Z,18.34
2022-07-26T17:42:44.556Z,18.11
2022-07-26T17:45:13.619Z,18.03
2022-07-26T17:47:41.367Z,17.95
2022-07-26T17:52:58.025Z,17.83
2022-07-26T17:55:25.634Z,17.71
2022-07-26T17:57:53.508Z,17.79
2022-07-26T18:00:23.684Z,17.74
2022-07-26T18:02:56.233Z,17.76
2022-07-26T18:05:29.938Z,17.55
2022-07-26T18:08:01.150Z,17.47
2022-07-26T18:10:29.136Z,17.38
2022-07-26T18:12:56.937Z,17.35
2022-07-26T18:15:26.184Z,17.35
2022-07-26T18:17:54.367Z,17.29
2022-07-26T18:20:24.322Z,17.17
2022-07-26T18:22:53.608Z,17.10
2022-07-26T18:25:21.418Z,16.93
2022-07-26T18:27:49.734Z,16.84
2022-07-26T18:30:17.375Z,16.76
2022-07-26T18:32:46.350Z,16.65
2022-07-26T18:35:14.011Z,16.56
2022-07-26T18:37:41.681Z,16.48
2022-07-26T18:40:10.202Z,16.37
2022-07-26T18:42:37.858Z,16.27
2022-07-26T18:45:06.353Z,16.20
2022-07-26T18:47:33.964Z,16.13
2022-07-26T18:50:02.968Z,16.07
2022-07-26T18:52:32.503Z,16.04
2022-07-26T18:55:02.252Z,15.93
2022-07-26T18:57:29.909Z,15.78
2022-07-26T18:59:57.511Z,15.70
2022-07-26T19:02:25.142Z,15.74
2022-07-26T19:04:52.799Z,15.65
2022-07-26T19:07:21.737Z,15.59
2022-07-26T19:09:49.370Z,15.49
2022-07-26T19:12:17.049Z,15.47
2022-07-26T19:14:44.659Z,15.40
2022-07-26T19:17:12.277Z,15.28
2022-07-26T19:19:39.929Z,15.18
2022-07-26T19:22:07.504Z,15.12
2022-07-26T19:24:36.928Z,15.03
2022-07-26T19:27:04.778Z,15.00
2022-07-26T19:29:32.373Z,14.96
2022-07-26T19:31:59.952Z,14.84
2022-07-26T19:34:27.551Z,14.79
2022-07-26T19:36:55.141Z,14.70
2022-07-26T19:39:22.766Z,14.56
2022-07-26T19:41:51.722Z,14.56
2022-07-26T19:44:19.614Z,14.45
2022-07-26T19:46:47.534Z,14.38
2022-07-26T19:49:17.096Z,14.31
2022-07-26T19:51:45.909Z,14.23
2022-07-26T19:54:14.102Z,14.18
2022-07-26T19:56:44.219Z,14.12
2022-07-26T19:59:15.928Z,14.04
2022-07-26T20:01:47.459Z,14.03
2022-07-26T20:04:15.147Z,13.99
2022-07-26T20:06:42.716Z,13.96
2022-07-26T20:09:10.801Z,13.91
2022-07-26T20:11:38.766Z,13.93
2022-07-26T20:14:06.364Z,14.02
2022-07-26T20:16:35.401Z,13.99
2022-07-26T20:19:03.531Z,13.95
2022-07-26T20:21:31.217Z,14.07
2022-07-26T20:23:58.798Z,13.99
2022-07-26T20:26:26.396Z,14.02
2022-07-26T20:28:55.185Z,14.04
2022-07-26T20:31:22.858Z,14.02
2022-07-26T20:33:51.913Z,14.02
2022-07-26T20:36:19.520Z,13.98
2022-07-26T20:38:51.500Z,13.92
2022-07-26T20:41:19.720Z,13.90
2022-07-26T20:43:48.535Z,13.78
2022-07-26T20:46:16.244Z,13.75
2022-07-26T20:48:43.984Z,13.55
2022-07-26T20:51:13.317Z,13.42
2022-07-26T20:53:41.734Z,13.37
2022-07-26T20:56:10.247Z,13.18
2022-07-26T20:58:37.920Z,13.05
2022-07-26T21:01:05.658Z,12.98
2022-07-26T21:03:33.267Z,13.05
2022-07-26T21:06:00.857Z,12.99
2022-07-26T21:08:29.835Z,12.80
2022-07-26T21:10:57.481Z,12.79
2022-07-26T21:13:25.390Z,12.69
2022-07-26T21:15:54.277Z,12.50
2022-07-26T21:18:22.348Z,12.61
2022-07-26T21:20:50.096Z,12.55
2022-07-26T21:23:18.500Z,12.48
2022-07-26T21:25:49.081Z,12.31
2022-07-26T21:28:25.859Z,12.27
2022-07-26T21:30:54.152Z,12.46
2022-07-26T21:33:21.851Z,12.48
2022-07-26T21:35:49.460Z,12.47
2022-07-26T21:38:17.180Z,12.39
2022-07-26T21:40:44.948Z,12.28
2022-07-26T21:43:13.918Z,12.26
2022-07-26T21:45:41.563Z,12.28
2022-07-26T21:48:09.396Z,12.27
2022-07-26T21:50:36.958Z,12.21
2022-07-26T21:53:04.652Z,12.30
2022-07-26T21:55:32.259Z,12.41
2022-07-26T21:57:59.822Z,12.25
2022-07-26T22:00:28.756Z,12.07
2022-07-26T22:02:56.375Z,12.09
2022-07-26T22:05:37.750Z,12.05
2022-07-26T22:08:09.857Z,12.10
2022-07-26T22:10:44.441Z,12.20
2022-07-26T22:13:12.760Z,12.35
2022-07-26T22:15:42.343Z,12.20
2022-07-26T22:18:10.170Z,12.13
2022-07-26T22:20:37.977Z,12.12
2022-07-26T22:23:07.383Z,11.92
2022-07-26T22:25:36.392Z,12.02
2022-07-26T22:28:05.388Z,12.01
2022-07-26T22:30:33.097Z,12.07
2022-07-26T22:33:03.373Z,12.03
2022-07-26T22:35:36.373Z,12.00
2022-07-26T22:38:05.614Z,11.98
2022-07-26T22:40:33.857Z,11.88
2022-07-26T22:43:01.647Z,11.81
2022-07-26T22:45:30.572Z,11.92
2022-07-26T22:47:58.634Z,11.95
2022-07-26T22:50:27.933Z,11.99
2022-07-26T22:52:55.844Z,11.95
2022-07-26T22:55:23.482Z,11.93
2022-07-26T22:57:51.215Z,11.87
2022-07-26T23:00:20.003Z,11.71
2022-07-26T23:02:47.875Z,11.56
2022-07-26T23:05:16.658Z,11.55
2022-07-26T23:07:47.807Z,11.53
2022-07-26T23:10:16.578Z,11.64
2022-07-26T23:12:44.474Z,11.57
2022-07-26T23:15:12.494Z,11.56
2022-07-26T23:17:40.147Z,11.53
2022-07-26T23:20:09.666Z,11.49
2022-07-26T23:22:37.253Z,11.48
2022-07-26T23:25:07.129Z,11.48
2022-07-26T23:27:34.981Z,11.40
2022-07-26T23:30:02.621Z,11.44
2022-07-26T23:32:30.201Z,11.43
2022-07-26T23:34:57.777Z,11.39
2022-07-26T23:37:25.374Z,11.38
2022-07-26T23:39:52.945Z,11.31
2022-07-26T23:42:21.907Z,11.21
2022-07-26T23:44:49.490Z,11.28
2022-07-26T23:47:17.187Z,11.25
2022-07-26T23:49:44.883Z,11.33
2022-07-26T23:52:12.460Z,11.39
2022-07-26T23:54:40.070Z,11.41
2022-07-26T23:57:07.697Z,11.44
2022-07-26T23:59:36.623Z,11.53
